NFC5157 LFPG-EDDK
Flight info
| Callsign | NFC5157 |
|---|---|
| Flight time | 0h 41m |
| Altitude | 22000 |
| Route | RANUX6G RANUX DCT VALEK DCT LUTAX UM163 DIK N853 ARCKY T853 IBESA T860 ERUKI ERUKI1K |
| Aircraft | MD11/H-SDE1E2E3FGHIJ2J3J4J5M1RWXY/LB1D1 |
Departure
| Time | 2026-05-08 12:11 |
|---|---|
| Airport | Charles de Gaulle International Airport (LFPG) |
Arrival
| Time | 2026-05-08 12:53 |
|---|---|
| Airport | Cologne Bonn Airport (EDDK) |
| Time | Latitude | Longitude | Altitude | Speed | Heading |
|---|---|---|---|---|---|
| 2026-05-08 11:31 | 49.00001 | 2.54002 | 361 ft | 0 kts | 355° |
| 2026-05-08 12:01 | 48.99988 | 2.54003 | 367 ft | 3 kts | 355° |
| 2026-05-08 12:01 | 48.99969 | 2.54006 | 361 ft | 3 kts | 5° |
| 2026-05-08 12:02 | 48.99952 | 2.53999 | 365 ft | 3 kts | 27° |
| 2026-05-08 12:02 | 48.99937 | 2.53983 | 366 ft | 3 kts | 64° |
| 2026-05-08 12:02 | 48.99933 | 2.53966 | 361 ft | 0 kts | 89° |
| 2026-05-08 12:06 | 48.99933 | 2.53947 | 361 ft | 2 kts | 89° |
| 2026-05-08 12:06 | 48.99930 | 2.53989 | 369 ft | 9 kts | 96° |
| 2026-05-08 12:06 | 48.99920 | 2.54110 | 366 ft | 13 kts | 94° |
| 2026-05-08 12:06 | 48.99905 | 2.54222 | 366 ft | 6 kts | 132° |
| 2026-05-08 12:07 | 48.99868 | 2.54248 | 367 ft | 7 kts | 160° |
| 2026-05-08 12:07 | 48.99838 | 2.54309 | 365 ft | 8 kts | 98° |
| 2026-05-08 12:07 | 48.99839 | 2.54418 | 361 ft | 12 kts | 86° |
| 2026-05-08 12:07 | 48.99847 | 2.54565 | 367 ft | 16 kts | 85° |
| 2026-05-08 12:08 | 48.99856 | 2.54725 | 363 ft | 12 kts | 88° |
| 2026-05-08 12:08 | 48.99821 | 2.54818 | 366 ft | 9 kts | 148° |
| 2026-05-08 12:08 | 48.99770 | 2.54853 | 365 ft | 7 kts | 149° |
| 2026-05-08 12:08 | 48.99730 | 2.54914 | 368 ft | 10 kts | 124° |
| 2026-05-08 12:09 | 48.99693 | 2.55026 | 369 ft | 12 kts | 116° |
| 2026-05-08 12:09 | 48.99659 | 2.55133 | 368 ft | 10 kts | 115° |
| 2026-05-08 12:09 | 48.99630 | 2.55223 | 369 ft | 9 kts | 115° |
| 2026-05-08 12:09 | 48.99601 | 2.55301 | 367 ft | 8 kts | 127° |
| 2026-05-08 12:10 | 48.99578 | 2.55372 | 365 ft | 7 kts | 102° |
| 2026-05-08 12:10 | 48.99579 | 2.55447 | 363 ft | 11 kts | 86° |
| 2026-05-08 12:10 | 48.99597 | 2.55793 | 366 ft | 68 kts | 85° |
| 2026-05-08 12:10 | 48.99660 | 2.56954 | 365 ft | 149 kts | 85° |
| 2026-05-08 12:11 | 48.99752 | 2.58739 | 684 ft | 178 kts | 86° |
| 2026-05-08 12:11 | 48.99855 | 2.60622 | 1747 ft | 180 kts | 85° |
| 2026-05-08 12:11 | 48.99967 | 2.62519 | 2774 ft | 179 kts | 84° |
| 2026-05-08 12:11 | 49.00073 | 2.64395 | 3579 ft | 179 kts | 85° |
| 2026-05-08 12:12 | 49.00178 | 2.66451 | 3866 ft | 213 kts | 85° |
| 2026-05-08 12:12 | 49.00305 | 2.68886 | 4017 ft | 248 kts | 85° |
| 2026-05-08 12:12 | 49.00443 | 2.71593 | 4755 ft | 258 kts | 85° |
| 2026-05-08 12:12 | 49.00580 | 2.74337 | 5810 ft | 262 kts | 85° |
| 2026-05-08 12:13 | 49.00722 | 2.77134 | 6782 ft | 268 kts | 85° |
| 2026-05-08 12:13 | 49.00870 | 2.79997 | 7651 ft | 274 kts | 85° |
| 2026-05-08 12:13 | 49.01021 | 2.82920 | 8525 ft | 279 kts | 85° |
| 2026-05-08 12:13 | 49.01178 | 2.85911 | 9347 ft | 286 kts | 86° |
| 2026-05-08 12:14 | 49.01334 | 2.88957 | 10198 ft | 292 kts | 86° |
| 2026-05-08 12:14 | 49.01510 | 2.92189 | 10397 ft | 320 kts | 84° |
| 2026-05-08 12:14 | 49.01824 | 2.95695 | 10538 ft | 348 kts | 82° |
| 2026-05-08 12:14 | 49.02238 | 2.99435 | 10845 ft | 364 kts | 81° |
| 2026-05-08 12:15 | 49.02687 | 3.03257 | 11518 ft | 369 kts | 81° |
| 2026-05-08 12:15 | 49.03145 | 3.07118 | 12207 ft | 372 kts | 81° |
| 2026-05-08 12:15 | 49.03606 | 3.11028 | 12884 ft | 376 kts | 81° |
| 2026-05-08 12:15 | 49.04067 | 3.14976 | 13553 ft | 381 kts | 81° |
| 2026-05-08 12:16 | 49.04530 | 3.18974 | 14175 ft | 385 kts | 81° |
| 2026-05-08 12:16 | 49.04995 | 3.23010 | 14767 ft | 388 kts | 81° |
| 2026-05-08 12:16 | 49.05462 | 3.27085 | 15355 ft | 392 kts | 81° |
| 2026-05-08 12:16 | 49.05932 | 3.31197 | 15979 ft | 396 kts | 81° |
| 2026-05-08 12:17 | 49.06405 | 3.35344 | 16572 ft | 399 kts | 81° |
| 2026-05-08 12:17 | 49.06880 | 3.39539 | 17165 ft | 403 kts | 81° |
| 2026-05-08 12:17 | 49.07358 | 3.43773 | 17727 ft | 408 kts | 81° |
| 2026-05-08 12:17 | 49.07677 | 3.46602 | 17995 ft | 410 kts | 81° |
| 2026-05-08 12:18 | 49.08159 | 3.50900 | 18563 ft | 413 kts | 81° |
| 2026-05-08 12:18 | 49.08623 | 3.55231 | 19048 ft | 415 kts | 83° |
| 2026-05-08 12:18 | 49.08987 | 3.59626 | 19559 ft | 418 kts | 85° |
| 2026-05-08 12:18 | 49.09293 | 3.64051 | 20045 ft | 421 kts | 85° |
| 2026-05-08 12:19 | 49.09581 | 3.68519 | 20539 ft | 424 kts | 85° |
| 2026-05-08 12:19 | 49.09867 | 3.73013 | 20937 ft | 427 kts | 85° |
| 2026-05-08 12:19 | 49.10158 | 3.77534 | 21329 ft | 429 kts | 85° |
| 2026-05-08 12:19 | 49.10454 | 3.82079 | 21718 ft | 432 kts | 85° |
| 2026-05-08 12:20 | 49.10753 | 3.86651 | 21986 ft | 435 kts | 85° |
| 2026-05-08 12:20 | 49.11052 | 3.91209 | 22041 ft | 425 kts | 85° |
| 2026-05-08 12:20 | 49.11345 | 3.95668 | 22049 ft | 421 kts | 85° |
| 2026-05-08 12:20 | 49.11634 | 4.00099 | 22051 ft | 419 kts | 85° |
| 2026-05-08 12:21 | 49.11920 | 4.04526 | 22047 ft | 419 kts | 85° |
| 2026-05-08 12:21 | 49.12204 | 4.08959 | 22046 ft | 419 kts | 85° |
| 2026-05-08 12:21 | 49.12487 | 4.13390 | 22049 ft | 420 kts | 85° |
| 2026-05-08 12:21 | 49.12766 | 4.17823 | 22045 ft | 420 kts | 85° |
| 2026-05-08 12:22 | 49.13047 | 4.22253 | 22051 ft | 419 kts | 85° |
| 2026-05-08 12:22 | 49.13326 | 4.26686 | 22049 ft | 420 kts | 85° |
| 2026-05-08 12:22 | 49.13599 | 4.31060 | 22053 ft | 420 kts | 85° |
| 2026-05-08 12:22 | 49.13999 | 4.35475 | 22051 ft | 421 kts | 78° |
| 2026-05-08 12:23 | 49.14834 | 4.39756 | 22055 ft | 421 kts | 71° |
| 2026-05-08 12:23 | 49.15904 | 4.43925 | 22058 ft | 422 kts | 68° |
| 2026-05-08 12:23 | 49.17059 | 4.48046 | 22059 ft | 422 kts | 67° |
| 2026-05-08 12:23 | 49.18227 | 4.52159 | 22058 ft | 422 kts | 67° |
| 2026-05-08 12:24 | 49.19383 | 4.56273 | 22063 ft | 422 kts | 67° |
| 2026-05-08 12:24 | 49.20524 | 4.60404 | 22062 ft | 422 kts | 68° |
| 2026-05-08 12:24 | 49.21652 | 4.64545 | 22070 ft | 422 kts | 68° |
| 2026-05-08 12:24 | 49.22772 | 4.68692 | 22069 ft | 421 kts | 68° |
| 2026-05-08 12:25 | 49.23885 | 4.72836 | 22070 ft | 422 kts | 68° |
| 2026-05-08 12:25 | 49.24997 | 4.76993 | 22071 ft | 421 kts | 68° |
| 2026-05-08 12:25 | 49.26105 | 4.81148 | 22071 ft | 422 kts | 68° |
| 2026-05-08 12:25 | 49.27214 | 4.85310 | 22072 ft | 422 kts | 68° |
| 2026-05-08 12:26 | 49.28320 | 4.89469 | 22073 ft | 422 kts | 68° |
| 2026-05-08 12:26 | 49.29426 | 4.93635 | 22073 ft | 422 kts | 68° |
| 2026-05-08 12:26 | 49.30532 | 4.97804 | 22074 ft | 422 kts | 68° |
| 2026-05-08 12:26 | 49.31635 | 5.01971 | 22075 ft | 422 kts | 68° |
| 2026-05-08 12:27 | 49.32736 | 5.06137 | 22072 ft | 422 kts | 69° |
| 2026-05-08 12:27 | 49.33836 | 5.10307 | 22076 ft | 422 kts | 69° |
| 2026-05-08 12:27 | 49.34934 | 5.14482 | 22077 ft | 422 kts | 69° |
| 2026-05-08 12:27 | 49.36029 | 5.18651 | 22077 ft | 422 kts | 69° |
| 2026-05-08 12:28 | 49.37125 | 5.22824 | 22077 ft | 422 kts | 69° |
| 2026-05-08 12:28 | 49.38216 | 5.26995 | 22080 ft | 421 kts | 69° |
| 2026-05-08 12:28 | 49.39307 | 5.31172 | 22078 ft | 421 kts | 69° |
| 2026-05-08 12:28 | 49.40395 | 5.35347 | 22084 ft | 421 kts | 69° |
| 2026-05-08 12:29 | 49.41481 | 5.39524 | 22079 ft | 421 kts | 69° |
| 2026-05-08 12:29 | 49.42566 | 5.43702 | 22082 ft | 421 kts | 69° |
| 2026-05-08 12:29 | 49.43638 | 5.47829 | 22083 ft | 421 kts | 69° |
| 2026-05-08 12:29 | 49.44722 | 5.52014 | 22081 ft | 421 kts | 69° |
| 2026-05-08 12:30 | 49.45791 | 5.56211 | 22082 ft | 421 kts | 69° |
| 2026-05-08 12:30 | 49.46850 | 5.60409 | 22081 ft | 421 kts | 69° |
| 2026-05-08 12:30 | 49.47910 | 5.64601 | 22080 ft | 421 kts | 69° |
| 2026-05-08 12:30 | 49.48978 | 5.68794 | 22082 ft | 421 kts | 69° |
| 2026-05-08 12:31 | 49.50050 | 5.72979 | 22085 ft | 421 kts | 68° |
| 2026-05-08 12:31 | 49.51355 | 5.77005 | 22082 ft | 421 kts | 56° |
| 2026-05-08 12:31 | 49.53286 | 5.80367 | 22086 ft | 420 kts | 40° |
| 2026-05-08 12:31 | 49.55633 | 5.83036 | 22085 ft | 420 kts | 32° |
| 2026-05-08 12:32 | 49.58128 | 5.85404 | 22085 ft | 420 kts | 30° |
| 2026-05-08 12:32 | 49.60643 | 5.87703 | 22083 ft | 420 kts | 30° |
| 2026-05-08 12:32 | 49.63144 | 5.90027 | 22080 ft | 419 kts | 31° |
| 2026-05-08 12:32 | 49.65624 | 5.92400 | 22078 ft | 420 kts | 31° |
| 2026-05-08 12:33 | 49.68094 | 5.94820 | 22080 ft | 420 kts | 32° |
| 2026-05-08 12:33 | 49.70550 | 5.97266 | 22082 ft | 420 kts | 32° |
| 2026-05-08 12:33 | 49.73000 | 5.99727 | 22081 ft | 420 kts | 32° |
| 2026-05-08 12:33 | 49.75442 | 6.02193 | 22082 ft | 420 kts | 32° |
| 2026-05-08 12:34 | 49.77894 | 6.04671 | 22083 ft | 420 kts | 32° |
| 2026-05-08 12:34 | 49.80301 | 6.07106 | 22082 ft | 419 kts | 32° |
| 2026-05-08 12:34 | 49.82742 | 6.09580 | 22083 ft | 419 kts | 32° |
| 2026-05-08 12:34 | 49.85246 | 6.11873 | 22081 ft | 418 kts | 24° |
| 2026-05-08 12:35 | 49.88012 | 6.13198 | 22089 ft | 415 kts | 7° |
| 2026-05-08 12:35 | 49.90886 | 6.13551 | 22089 ft | 414 kts | 359° |
| 2026-05-08 12:35 | 49.93765 | 6.13500 | 22092 ft | 414 kts | 356° |
| 2026-05-08 12:35 | 49.96646 | 6.13350 | 22096 ft | 414 kts | 356° |
| 2026-05-08 12:36 | 49.99521 | 6.13220 | 22092 ft | 413 kts | 357° |
| 2026-05-08 12:36 | 50.02401 | 6.13140 | 22099 ft | 414 kts | 358° |
| 2026-05-08 12:36 | 50.05284 | 6.13102 | 22093 ft | 414 kts | 358° |
| 2026-05-08 12:36 | 50.08165 | 6.13093 | 22093 ft | 414 kts | 358° |
| 2026-05-08 12:37 | 50.11044 | 6.13102 | 22094 ft | 413 kts | 359° |
| 2026-05-08 12:37 | 50.13923 | 6.13116 | 22097 ft | 414 kts | 359° |
| 2026-05-08 12:37 | 50.16767 | 6.13134 | 22097 ft | 414 kts | 359° |
| 2026-05-08 12:37 | 50.19645 | 6.13152 | 22097 ft | 414 kts | 359° |
| 2026-05-08 12:38 | 50.22523 | 6.13170 | 22101 ft | 414 kts | 359° |
| 2026-05-08 12:38 | 50.25405 | 6.13187 | 22097 ft | 414 kts | 359° |
| 2026-05-08 12:38 | 50.28303 | 6.13321 | 22064 ft | 424 kts | 4° |
| 2026-05-08 12:38 | 50.31196 | 6.14334 | 21751 ft | 429 kts | 20° |
| 2026-05-08 12:39 | 50.33876 | 6.16424 | 21277 ft | 432 kts | 31° |
| 2026-05-08 12:39 | 50.36372 | 6.19021 | 20624 ft | 430 kts | 35° |
| 2026-05-08 12:39 | 50.38784 | 6.21752 | 19986 ft | 425 kts | 36° |
| 2026-05-08 12:39 | 50.41173 | 6.24453 | 19351 ft | 421 kts | 36° |
| 2026-05-08 12:40 | 50.43514 | 6.27193 | 18672 ft | 419 kts | 38° |
| 2026-05-08 12:40 | 50.45780 | 6.30016 | 17904 ft | 414 kts | 39° |
| 2026-05-08 12:40 | 50.48006 | 6.32844 | 17107 ft | 409 kts | 39° |
| 2026-05-08 12:40 | 50.50203 | 6.35639 | 16320 ft | 404 kts | 39° |
| 2026-05-08 12:41 | 50.52375 | 6.38387 | 15578 ft | 399 kts | 38° |
| 2026-05-08 12:41 | 50.54527 | 6.41100 | 14826 ft | 394 kts | 38° |
| 2026-05-08 12:41 | 50.56658 | 6.43778 | 14091 ft | 390 kts | 38° |
| 2026-05-08 12:41 | 50.58769 | 6.46422 | 13320 ft | 386 kts | 38° |
| 2026-05-08 12:42 | 50.60857 | 6.49036 | 12537 ft | 381 kts | 38° |
| 2026-05-08 12:42 | 50.62920 | 6.51625 | 11772 ft | 376 kts | 38° |
| 2026-05-08 12:42 | 50.64954 | 6.54181 | 11025 ft | 372 kts | 38° |
| 2026-05-08 12:42 | 50.66968 | 6.56714 | 10306 ft | 368 kts | 38° |
| 2026-05-08 12:43 | 50.68947 | 6.59204 | 9907 ft | 356 kts | 38° |
| 2026-05-08 12:43 | 50.70835 | 6.61583 | 9773 ft | 339 kts | 38° |
| 2026-05-08 12:43 | 50.72633 | 6.63853 | 9628 ft | 322 kts | 38° |
| 2026-05-08 12:43 | 50.74352 | 6.66018 | 9495 ft | 310 kts | 38° |
| 2026-05-08 12:44 | 50.75988 | 6.68090 | 9339 ft | 294 kts | 38° |
| 2026-05-08 12:44 | 50.77564 | 6.70089 | 9080 ft | 288 kts | 38° |
| 2026-05-08 12:44 | 50.79119 | 6.72059 | 8725 ft | 284 kts | 38° |
| 2026-05-08 12:44 | 50.80656 | 6.74002 | 8386 ft | 282 kts | 37° |
| 2026-05-08 12:45 | 50.82326 | 6.75555 | 7977 ft | 278 kts | 18° |
| 2026-05-08 12:45 | 50.84213 | 6.76092 | 7619 ft | 275 kts | 4° |
| 2026-05-08 12:45 | 50.86123 | 6.76224 | 7244 ft | 274 kts | 1° |
| 2026-05-08 12:45 | 50.88030 | 6.76273 | 6870 ft | 273 kts | 0° |
| 2026-05-08 12:46 | 50.89928 | 6.76315 | 6498 ft | 272 kts | 1° |
| 2026-05-08 12:46 | 50.91778 | 6.76360 | 6121 ft | 270 kts | 1° |
| 2026-05-08 12:46 | 50.93611 | 6.76816 | 5725 ft | 267 kts | 18° |
| 2026-05-08 12:46 | 50.95329 | 6.77899 | 5347 ft | 265 kts | 24° |
| 2026-05-08 12:47 | 50.96999 | 6.79123 | 4983 ft | 263 kts | 26° |
| 2026-05-08 12:47 | 50.98476 | 6.80760 | 4657 ft | 258 kts | 45° |
| 2026-05-08 12:47 | 50.99653 | 6.82887 | 4307 ft | 255 kts | 51° |
| 2026-05-08 12:47 | 51.00747 | 6.85091 | 3976 ft | 252 kts | 52° |
| 2026-05-08 12:48 | 51.01763 | 6.87274 | 3805 ft | 238 kts | 59° |
| 2026-05-08 12:48 | 51.02294 | 6.89677 | 3570 ft | 230 kts | 86° |
| 2026-05-08 12:48 | 51.01924 | 6.92098 | 3361 ft | 228 kts | 122° |
| 2026-05-08 12:48 | 51.00914 | 6.94041 | 3184 ft | 228 kts | 133° |
| 2026-05-08 12:49 | 50.99833 | 6.95785 | 3004 ft | 213 kts | 136° |
| 2026-05-08 12:49 | 50.98802 | 6.97291 | 2962 ft | 192 kts | 138° |
| 2026-05-08 12:49 | 50.97823 | 6.98699 | 2906 ft | 190 kts | 137° |
| 2026-05-08 12:49 | 50.96859 | 7.00100 | 2640 ft | 186 kts | 137° |
| 2026-05-08 12:50 | 50.95904 | 7.01486 | 2397 ft | 186 kts | 137° |
| 2026-05-08 12:50 | 50.94965 | 7.02851 | 2138 ft | 178 kts | 137° |
| 2026-05-08 12:50 | 50.94077 | 7.04150 | 1913 ft | 169 kts | 137° |
| 2026-05-08 12:50 | 50.93224 | 7.05391 | 1661 ft | 165 kts | 138° |
| 2026-05-08 12:51 | 50.92381 | 7.06614 | 1469 ft | 164 kts | 137° |
| 2026-05-08 12:51 | 50.90713 | 7.09044 | 1003 ft | 162 kts | 137° |
| 2026-05-08 12:51 | 50.89885 | 7.10249 | 770 ft | 160 kts | 139° |
| 2026-05-08 12:52 | 50.89070 | 7.11430 | 544 ft | 160 kts | 136° |
| 2026-05-08 12:52 | 50.87461 | 7.13756 | 248 ft | 139 kts | 137° |
| 2026-05-08 12:52 | 50.86842 | 7.14653 | 271 ft | 103 kts | 137° |
| 2026-05-08 12:53 | 50.86433 | 7.15223 | 295 ft | 47 kts | 148° |
| 2026-05-08 12:53 | 50.86248 | 7.15329 | 298 ft | 22 kts | 167° |
| 2026-05-08 12:53 | 50.86121 | 7.15356 | 297 ft | 15 kts | 190° |
| 2026-05-08 12:53 | 50.86055 | 7.15266 | 301 ft | 12 kts | 245° |
| 2026-05-08 12:54 | 50.86053 | 7.15145 | 299 ft | 11 kts | 287° |
| 2026-05-08 12:54 | 50.86100 | 7.15057 | 300 ft | 11 kts | 317° |
| 2026-05-08 12:54 | 50.86168 | 7.14957 | 297 ft | 17 kts | 317° |
| 2026-05-08 12:54 | 50.86270 | 7.14806 | 287 ft | 23 kts | 317° |
| 2026-05-08 12:55 | 50.86390 | 7.14631 | 280 ft | 24 kts | 318° |
| 2026-05-08 12:55 | 50.86519 | 7.14446 | 272 ft | 26 kts | 317° |
| 2026-05-08 12:55 | 50.86651 | 7.14258 | 268 ft | 22 kts | 318° |
| 2026-05-08 12:55 | 50.86724 | 7.14139 | 264 ft | 11 kts | 295° |
| 2026-05-08 12:56 | 50.86709 | 7.14041 | 263 ft | 9 kts | 244° |
| 2026-05-08 12:56 | 50.86683 | 7.13960 | 262 ft | 9 kts | 243° |
| 2026-05-08 12:56 | 50.86647 | 7.13844 | 263 ft | 15 kts | 244° |
| 2026-05-08 12:56 | 50.86595 | 7.13674 | 256 ft | 20 kts | 244° |
| 2026-05-08 12:57 | 50.86535 | 7.13483 | 256 ft | 19 kts | 244° |
| 2026-05-08 12:57 | 50.86509 | 7.13305 | 256 ft | 15 kts | 286° |
| 2026-05-08 12:57 | 50.86573 | 7.13179 | 255 ft | 15 kts | 316° |
| 2026-05-08 12:57 | 50.86647 | 7.13067 | 253 ft | 15 kts | 317° |
| 2026-05-08 12:58 | 50.86724 | 7.12954 | 250 ft | 15 kts | 319° |
| 2026-05-08 12:58 | 50.86805 | 7.12843 | 248 ft | 15 kts | 319° |
| 2026-05-08 12:58 | 50.86852 | 7.12835 | 247 ft | 5 kts | 30° |
| 2026-05-08 12:58 | 50.86875 | 7.12870 | 247 ft | 5 kts | 48° |
| 2026-05-08 12:59 | 50.86900 | 7.12914 | 247 ft | 2 kts | 48° |